createdAt,value
2019-03-25T00:02:07.403Z,6.44
2019-03-25T00:04:35.641Z,6.40
2019-03-25T00:07:04.119Z,6.37
2019-03-25T00:09:32.353Z,6.29
2019-03-25T00:12:00.605Z,6.26
2019-03-25T00:14:28.830Z,6.26
2019-03-25T00:16:57.074Z,6.27
2019-03-25T00:19:25.306Z,6.25
2019-03-25T00:21:53.555Z,6.25
2019-03-25T00:24:21.790Z,6.24
2019-03-25T00:26:50.034Z,6.25
2019-03-25T00:29:18.273Z,6.27
2019-03-25T00:31:46.517Z,6.27
2019-03-25T00:34:14.754Z,6.25
2019-03-25T00:36:43.262Z,6.21
2019-03-25T00:39:11.500Z,6.19
2019-03-25T00:41:39.731Z,6.17
2019-03-25T00:44:07.967Z,6.13
2019-03-25T00:46:36.434Z,6.09
2019-03-25T00:49:04.673Z,6.05
2019-03-25T00:51:32.908Z,6.02
2019-03-25T00:54:01.149Z,5.97
2019-03-25T00:56:29.646Z,5.93
2019-03-25T00:58:57.894Z,5.90
2019-03-25T01:01:26.126Z,5.86
2019-03-25T01:03:54.372Z,5.82
2019-03-25T01:06:22.606Z,5.81
2019-03-25T01:08:51.135Z,5.79
2019-03-25T01:11:19.416Z,5.76
2019-03-25T01:13:47.666Z,5.69
2019-03-25T01:16:15.911Z,5.66
2019-03-25T01:18:44.151Z,5.62
2019-03-25T01:21:12.391Z,5.56
2019-03-25T01:23:40.622Z,5.56
2019-03-25T01:26:08.859Z,5.50
2019-03-25T01:28:37.102Z,5.47
2019-03-25T01:31:05.339Z,5.40
2019-03-25T01:33:33.582Z,5.39
2019-03-25T01:36:01.818Z,5.36
2019-03-25T01:38:30.051Z,5.32
2019-03-25T01:40:58.310Z,5.27
2019-03-25T01:43:26.540Z,5.22
2019-03-25T01:45:54.792Z,5.18
2019-03-25T01:48:23.032Z,5.13
2019-03-25T01:50:51.539Z,5.11
2019-03-25T01:53:19.772Z,5.11
2019-03-25T01:55:48.301Z,5.09
2019-03-25T01:58:16.538Z,5.05
2019-03-25T02:00:44.776Z,4.98
2019-03-25T02:03:13.021Z,4.97
2019-03-25T02:05:41.262Z,4.94
2019-03-25T02:08:09.494Z,4.93
2019-03-25T02:10:37.734Z,4.90
2019-03-25T02:13:05.965Z,4.88
2019-03-25T02:15:34.511Z,4.85
2019-03-25T02:18:02.748Z,4.78
2019-03-25T02:20:31.210Z,4.70
2019-03-25T02:22:59.706Z,4.63
2019-03-25T02:25:28.272Z,4.53
2019-03-25T02:27:56.502Z,4.47
2019-03-25T02:30:24.966Z,4.40
2019-03-25T02:32:53.206Z,4.33
2019-03-25T02:35:21.670Z,4.25
2019-03-25T02:37:49.901Z,4.18
2019-03-25T02:40:18.129Z,4.14
2019-03-25T02:42:46.370Z,4.11
2019-03-25T02:45:14.598Z,4.12
2019-03-25T02:47:42.840Z,4.06
2019-03-25T02:50:11.551Z,4.15
2019-03-25T02:52:39.794Z,4.16
2019-03-25T02:55:08.087Z,4.17
2019-03-25T02:57:36.550Z,4.17
2019-03-25T03:00:05.338Z,4.18
2019-03-25T03:02:33.583Z,4.10
2019-03-25T03:05:02.043Z,4.10
2019-03-25T03:07:30.270Z,4.22
2019-03-25T03:09:58.510Z,4.22
2019-03-25T03:12:26.734Z,4.22
2019-03-25T03:14:54.975Z,4.26
2019-03-25T03:17:23.201Z,4.26
2019-03-25T03:19:51.441Z,4.32
2019-03-25T03:22:19.663Z,4.32
2019-03-25T03:24:48.119Z,4.32
2019-03-25T03:27:16.386Z,4.34
2019-03-25T03:29:44.589Z,4.23
2019-03-25T03:32:12.862Z,4.34
2019-03-25T03:34:41.089Z,4.34
2019-03-25T03:37:09.335Z,4.34
2019-03-25T03:39:37.555Z,4.34
2019-03-25T03:42:05.856Z,4.32
2019-03-25T03:44:34.097Z,4.29
2019-03-25T03:47:02.550Z,4.29
2019-03-25T03:49:30.781Z,4.30
2019-03-25T03:51:59.042Z,4.29
2019-03-25T03:54:27.262Z,4.28
2019-03-25T03:56:55.769Z,4.32
2019-03-25T03:59:25.031Z,4.35
2019-03-25T04:01:53.269Z,4.39
2019-03-25T04:04:21.512Z,4.45
2019-03-25T04:06:49.747Z,4.47
2019-03-25T04:09:18.200Z,4.45
2019-03-25T04:11:46.441Z,4.41
2019-03-25T04:14:14.905Z,4.35
2019-03-25T04:16:43.138Z,4.28
2019-03-25T04:19:11.379Z,4.09
2019-03-25T04:21:39.603Z,4.09
2019-03-25T04:24:07.837Z,3.97
2019-03-25T04:26:36.312Z,3.89
2019-03-25T04:29:04.535Z,3.89
2019-03-25T04:31:32.787Z,4.00
2019-03-25T04:34:01.249Z,4.03
2019-03-25T04:36:29.726Z,4.03
2019-03-25T04:38:57.957Z,4.07
2019-03-25T04:41:26.200Z,4.11
2019-03-25T04:43:54.700Z,4.11
2019-03-25T04:46:22.940Z,4.13
2019-03-25T04:48:51.168Z,4.12
2019-03-25T04:51:19.407Z,4.11
2019-03-25T04:53:47.634Z,4.11
2019-03-25T04:56:15.868Z,4.07
2019-03-25T04:58:44.095Z,4.16
2019-03-25T05:01:12.333Z,4.16
2019-03-25T05:03:40.571Z,4.19
2019-03-25T05:06:09.037Z,4.19
2019-03-25T05:08:37.262Z,4.29
2019-03-25T05:11:05.495Z,4.37
2019-03-25T05:13:33.722Z,4.42
2019-03-25T05:16:01.960Z,4.49
2019-03-25T05:18:30.184Z,4.54
2019-03-25T05:20:58.650Z,4.58
2019-03-25T05:23:27.120Z,4.65
2019-03-25T05:25:55.356Z,4.62
2019-03-25T05:28:23.589Z,4.68
2019-03-25T05:30:52.050Z,4.71
2019-03-25T05:33:20.277Z,4.75
2019-03-25T05:35:48.517Z,4.80
2019-03-25T05:38:16.750Z,4.81
2019-03-25T05:40:44.980Z,4.85
2019-03-25T05:43:13.225Z,4.86
2019-03-25T05:45:41.455Z,4.88
2019-03-25T05:48:09.691Z,4.90
2019-03-25T05:50:37.925Z,4.88
2019-03-25T05:53:06.167Z,4.93
2019-03-25T05:55:34.401Z,4.99
2019-03-25T05:58:02.652Z,4.98
2019-03-25T06:00:32.752Z,5.00
2019-03-25T06:03:01.239Z,4.99
2019-03-25T06:05:29.466Z,5.05
2019-03-25T06:07:57.936Z,5.10
2019-03-25T06:10:26.172Z,5.12
2019-03-25T06:12:54.404Z,5.13
2019-03-25T06:15:22.633Z,5.16
2019-03-25T06:17:50.871Z,5.16
2019-03-25T06:20:19.095Z,5.18
2019-03-25T06:22:47.328Z,5.18
2019-03-25T06:25:15.566Z,5.19
2019-03-25T06:27:43.799Z,5.23
2019-03-25T06:30:12.272Z,5.26
2019-03-25T06:32:40.742Z,5.31
2019-03-25T06:35:09.381Z,5.34
2019-03-25T06:37:37.660Z,5.31
2019-03-25T06:40:09.026Z,5.28
2019-03-25T06:42:37.268Z,5.30
2019-03-25T06:45:07.334Z,5.30
2019-03-25T06:47:35.579Z,5.31
2019-03-25T06:50:07.598Z,5.29
2019-03-25T06:52:36.016Z,5.32
2019-03-25T06:55:05.787Z,5.34
2019-03-25T06:57:34.297Z,5.34
2019-03-25T07:00:02.817Z,5.35
2019-03-25T07:02:31.062Z,5.43
2019-03-25T07:04:59.313Z,5.56
2019-03-25T07:07:27.635Z,5.73
2019-03-25T07:09:55.868Z,5.86
2019-03-25T07:12:24.202Z,5.96
2019-03-25T07:14:52.771Z,6.08
2019-03-25T07:17:21.009Z,6.22
2019-03-25T07:19:49.234Z,6.32
2019-03-25T07:22:17.713Z,6.41
2019-03-25T07:24:45.956Z,6.51
2019-03-25T07:27:14.202Z,6.60
2019-03-25T07:29:42.444Z,6.65
2019-03-25T07:32:10.695Z,6.63
2019-03-25T07:34:41.248Z,6.60
2019-03-25T07:37:08.924Z,6.55
2019-03-25T07:39:37.475Z,6.51
2019-03-25T07:42:06.049Z,6.47
2019-03-25T07:44:34.289Z,6.42
2019-03-25T07:47:02.540Z,6.40
2019-03-25T07:49:30.786Z,6.32
2019-03-25T07:51:59.032Z,6.28
2019-03-25T07:54:27.300Z,6.24
2019-03-25T07:56:55.537Z,6.21
2019-03-25T07:59:24.107Z,6.16
2019-03-25T08:01:52.610Z,6.13
2019-03-25T08:04:21.051Z,6.02
2019-03-25T08:06:49.298Z,5.96
2019-03-25T08:09:17.870Z,5.93
2019-03-25T08:11:46.394Z,5.95
2019-03-25T08:14:14.617Z,6.02
2019-03-25T08:16:42.857Z,6.09
2019-03-25T08:19:11.090Z,6.16
2019-03-25T08:21:39.553Z,6.28
2019-03-25T08:24:08.096Z,6.39
2019-03-25T08:26:36.326Z,6.49
2019-03-25T08:29:04.565Z,6.59
2019-03-25T08:31:32.791Z,6.65
2019-03-25T08:34:01.031Z,6.69
2019-03-25T08:36:29.499Z,6.81
2019-03-25T08:38:57.730Z,6.86
2019-03-25T08:41:25.963Z,6.98
2019-03-25T08:43:54.201Z,7.09
2019-03-25T08:46:22.428Z,7.20
2019-03-25T08:48:50.669Z,7.38
2019-03-25T08:51:18.894Z,7.54
2019-03-25T08:53:47.429Z,7.67
2019-03-25T08:56:15.686Z,7.72
2019-03-25T08:58:43.925Z,7.66
2019-03-25T09:01:12.156Z,7.60
2019-03-25T09:03:40.392Z,7.45
2019-03-25T09:06:08.909Z,7.29
2019-03-25T09:08:37.149Z,7.19
2019-03-25T09:11:07.092Z,7.12
2019-03-25T09:13:35.497Z,7.11
2019-03-25T09:16:03.731Z,7.06
2019-03-25T09:18:31.962Z,7.06
2019-03-25T09:21:00.194Z,7.09
2019-03-25T09:23:28.430Z,7.14
2019-03-25T09:25:57.002Z,7.25
2019-03-25T09:28:25.204Z,7.31
2019-03-25T09:30:56.924Z,7.37
2019-03-25T09:33:25.217Z,7.44
2019-03-25T09:35:53.608Z,7.57
2019-03-25T09:38:21.851Z,7.71
2019-03-25T09:40:50.429Z,7.84
2019-03-25T09:43:18.661Z,7.99
2019-03-25T09:45:46.891Z,8.09
2019-03-25T09:48:15.174Z,8.25
2019-03-25T09:50:43.637Z,8.32
2019-03-25T09:53:11.876Z,8.45
2019-03-25T09:55:40.110Z,8.45
2019-03-25T09:58:08.674Z,8.74
2019-03-25T10:00:36.911Z,8.83
2019-03-25T10:03:05.145Z,8.80
2019-03-25T10:05:33.371Z,8.76
2019-03-25T10:08:01.885Z,8.69
2019-03-25T10:10:30.366Z,8.62
2019-03-25T10:12:58.845Z,8.56
2019-03-25T10:15:27.078Z,8.57
2019-03-25T10:17:55.549Z,8.42
2019-03-25T10:20:24.091Z,8.34
2019-03-25T10:22:52.337Z,8.21
2019-03-25T10:25:20.845Z,8.11
2019-03-25T10:27:49.331Z,8.09
2019-03-25T10:30:19.657Z,8.09
2019-03-25T10:32:47.895Z,8.09
2019-03-25T10:35:16.513Z,7.71
2019-03-25T10:37:45.048Z,7.36
2019-03-25T10:40:14.348Z,7.15
2019-03-25T10:42:42.581Z,7.02
2019-03-25T10:45:11.402Z,6.93
2019-03-25T10:47:39.637Z,6.89
2019-03-25T10:50:08.541Z,6.86
2019-03-25T10:52:36.773Z,6.93
2019-03-25T10:55:07.772Z,7.03
2019-03-25T10:57:35.821Z,7.16
2019-03-25T11:00:08.541Z,7.17
2019-03-25T11:02:37.099Z,7.30
2019-03-25T11:05:06.931Z,7.34
2019-03-25T11:07:35.294Z,7.25
2019-03-25T11:10:06.314Z,7.17
2019-03-25T11:12:34.805Z,6.98
2019-03-25T11:15:04.098Z,6.73
2019-03-25T11:17:32.328Z,6.49
2019-03-25T11:20:00.573Z,6.34
2019-03-25T11:22:30.135Z,6.14
2019-03-25T11:24:58.455Z,5.96
2019-03-25T11:27:26.672Z,5.84
2019-03-25T11:29:54.912Z,5.81
2019-03-25T11:32:23.163Z,5.76
2019-03-25T11:34:51.626Z,5.70
2019-03-25T11:37:20.084Z,5.63
2019-03-25T11:39:48.549Z,5.61
2019-03-25T11:42:16.781Z,5.60
2019-03-25T11:44:45.022Z,5.67
2019-03-25T11:47:13.252Z,5.73
2019-03-25T11:49:41.494Z,5.88
2019-03-25T11:52:09.712Z,5.98
2019-03-25T11:54:38.769Z,6.03
2019-03-25T11:57:07.001Z,6.09
2019-03-25T11:59:35.481Z,6.20
2019-03-25T12:02:03.947Z,6.35
2019-03-25T12:04:32.178Z,6.50
2019-03-25T12:07:00.401Z,6.68
2019-03-25T12:09:28.642Z,6.83
2019-03-25T12:11:56.870Z,6.95
2019-03-25T12:14:25.349Z,7.05
2019-03-25T12:16:53.805Z,7.12
2019-03-25T12:19:22.038Z,7.19
2019-03-25T12:21:50.493Z,7.26
2019-03-25T12:24:18.797Z,7.33
2019-03-25T12:26:47.254Z,7.37
2019-03-25T12:29:15.491Z,7.54
2019-03-25T12:31:43.723Z,7.79
2019-03-25T12:34:11.984Z,7.93
2019-03-25T12:36:40.178Z,8.11
2019-03-25T12:39:08.413Z,8.24
2019-03-25T12:41:36.864Z,8.44
2019-03-25T12:44:05.097Z,8.64
2019-03-25T12:46:33.552Z,8.84
2019-03-25T12:49:01.787Z,8.95
2019-03-25T12:51:30.016Z,9.03
2019-03-25T12:53:58.471Z,9.06
2019-03-25T12:56:26.698Z,9.08
2019-03-25T12:58:55.169Z,8.99
2019-03-25T13:01:23.890Z,8.93
2019-03-25T13:03:52.130Z,8.80
2019-03-25T13:06:20.591Z,8.49
2019-03-25T13:08:48.824Z,8.01
2019-03-25T13:11:17.123Z,7.50
2019-03-25T13:13:45.362Z,7.15
2019-03-25T13:16:13.598Z,6.94
2019-03-25T13:18:42.067Z,6.77
2019-03-25T13:21:10.298Z,6.74
2019-03-25T13:23:38.533Z,6.70
2019-03-25T13:26:06.771Z,6.75
2019-03-25T13:28:35.235Z,6.72
2019-03-25T13:31:03.698Z,6.73
2019-03-25T13:33:32.171Z,6.79
2019-03-25T13:36:00.372Z,6.72
2019-03-25T13:38:28.842Z,6.92
2019-03-25T13:40:57.302Z,7.05
2019-03-25T13:43:25.758Z,7.16
2019-03-25T13:46:04.803Z,7.24
2019-03-25T13:48:23.946Z,7.31
2019-03-25T13:50:52.178Z,7.35
2019-03-25T13:53:20.409Z,7.27
2019-03-25T13:55:48.889Z,7.08
2019-03-25T13:58:17.350Z,6.91
2019-03-25T14:00:45.591Z,6.78
2019-03-25T14:03:13.994Z,6.67
2019-03-25T14:05:42.239Z,6.55
2019-03-25T14:08:10.460Z,6.47
2019-03-25T14:10:38.713Z,6.43
2019-03-25T14:13:06.936Z,6.40
2019-03-25T14:15:35.419Z,6.47
2019-03-25T14:18:03.881Z,6.73
2019-03-25T14:20:32.118Z,7.09
2019-03-25T14:23:00.340Z,7.37
2019-03-25T14:25:28.808Z,7.55
2019-03-25T14:27:59.132Z,7.88
2019-03-25T14:30:26.989Z,8.15
2019-03-25T14:32:55.212Z,8.38
2019-03-25T14:35:23.686Z,8.53
2019-03-25T14:37:52.251Z,8.74
2019-03-25T14:40:20.720Z,8.77
2019-03-25T14:42:49.180Z,8.99
2019-03-25T14:45:26.085Z,9.10
2019-03-25T14:47:47.933Z,9.20
2019-03-25T14:50:16.401Z,9.37
2019-03-25T14:52:44.636Z,9.36
2019-03-25T14:55:13.189Z,9.34
2019-03-25T14:57:41.419Z,9.25
2019-03-25T15:00:10.292Z,9.04
2019-03-25T15:02:38.577Z,8.84
2019-03-25T15:05:07.385Z,8.62
2019-03-25T15:07:35.616Z,8.38
2019-03-25T15:10:06.253Z,8.21
2019-03-25T15:12:34.711Z,8.00
2019-03-25T15:15:03.222Z,7.84
2019-03-25T15:17:31.450Z,7.68
2019-03-25T15:19:59.948Z,7.52
2019-03-25T15:22:28.167Z,7.38
2019-03-25T15:24:56.401Z,7.39
2019-03-25T15:27:24.852Z,7.60
2019-03-25T15:29:53.323Z,7.79
2019-03-25T15:32:21.548Z,8.04
2019-03-25T15:34:49.790Z,8.17
2019-03-25T15:37:18.017Z,8.24
2019-03-25T15:39:47.134Z,8.36
2019-03-25T15:42:15.392Z,8.35
2019-03-25T15:44:43.635Z,8.31
2019-03-25T15:47:12.189Z,8.21
2019-03-25T15:49:40.391Z,8.12
2019-03-25T15:52:08.616Z,8.03
2019-03-25T15:54:36.858Z,7.96
2019-03-25T15:57:05.315Z,7.88
2019-03-25T15:59:33.720Z,7.72
2019-03-25T16:02:02.187Z,7.77
2019-03-25T16:04:30.428Z,7.69
2019-03-25T16:07:01.574Z,7.60
2019-03-25T16:09:29.806Z,7.56
2019-03-25T16:11:58.051Z,7.57
2019-03-25T16:14:26.550Z,7.60
2019-03-25T16:16:54.845Z,7.63
2019-03-25T16:19:23.173Z,7.62
2019-03-25T16:21:51.401Z,7.60
2019-03-25T16:24:19.645Z,7.57
2019-03-25T16:26:47.878Z,7.53
2019-03-25T16:29:18.001Z,7.30
2019-03-25T16:31:46.065Z,7.22
2019-03-25T16:34:14.626Z,7.15
2019-03-25T16:36:42.858Z,7.09
2019-03-25T16:39:11.091Z,7.03
2019-03-25T16:41:39.338Z,6.97
2019-03-25T16:44:07.825Z,6.93
2019-03-25T16:46:36.307Z,6.89
2019-03-25T16:49:04.537Z,6.85
2019-03-25T16:51:32.782Z,6.78
2019-03-25T16:54:01.013Z,6.70
2019-03-25T16:56:29.347Z,6.60
2019-03-25T16:58:57.901Z,6.52
2019-03-25T17:01:26.137Z,6.47
2019-03-25T17:03:54.360Z,6.39
2019-03-25T17:06:22.599Z,6.25
2019-03-25T17:08:51.109Z,6.09
2019-03-25T17:11:19.352Z,6.02
2019-03-25T17:13:47.609Z,5.89
2019-03-25T17:16:15.853Z,5.78
2019-03-25T17:18:44.081Z,5.70
2019-03-25T17:21:12.339Z,5.61
2019-03-25T17:23:40.562Z,5.52
2019-03-25T17:26:08.802Z,5.48
2019-03-25T17:28:37.034Z,5.47
2019-03-25T17:31:06.134Z,5.47
2019-03-25T17:33:34.487Z,5.43
2019-03-25T17:36:02.776Z,5.36
2019-03-25T17:38:30.954Z,5.30
2019-03-25T17:40:59.189Z,5.24
2019-03-25T17:43:27.642Z,5.19
2019-03-25T17:45:55.881Z,5.16
2019-03-25T17:48:24.367Z,5.14
2019-03-25T17:50:53.026Z,5.06
2019-03-25T17:53:21.322Z,4.98
2019-03-25T17:55:49.816Z,4.90
2019-03-25T17:58:18.273Z,4.83
2019-03-25T18:00:55.426Z,4.75
2019-03-25T18:03:23.650Z,4.62
2019-03-25T18:05:51.996Z,4.51
2019-03-25T18:08:20.232Z,4.55
2019-03-25T18:10:48.483Z,4.52
2019-03-25T18:13:22.277Z,4.50
2019-03-25T18:15:46.929Z,4.46
2019-03-25T18:18:15.160Z,4.44
2019-03-25T18:20:43.406Z,4.42
2019-03-25T18:23:11.960Z,4.38
2019-03-25T18:25:40.544Z,4.37
2019-03-25T18:28:09.001Z,4.34
2019-03-25T18:30:37.308Z,4.33
2019-03-25T18:33:05.569Z,4.31
2019-03-25T18:35:34.170Z,4.32
2019-03-25T18:38:02.410Z,4.29
2019-03-25T18:40:30.646Z,4.29
2019-03-25T18:42:58.914Z,4.18
2019-03-25T18:45:27.155Z,4.27
2019-03-25T18:47:55.404Z,4.27
2019-03-25T18:50:23.622Z,4.29
2019-03-25T18:52:52.131Z,4.29
2019-03-25T18:55:20.378Z,4.20
2019-03-25T18:57:48.832Z,4.27
2019-03-25T19:00:33.250Z,4.17
2019-03-25T19:03:01.767Z,4.17
2019-03-25T19:05:30.344Z,4.29
2019-03-25T19:08:03.768Z,4.29
2019-03-25T19:10:32.490Z,4.27
2019-03-25T19:13:01.351Z,4.30
2019-03-25T19:15:29.896Z,4.32
2019-03-25T19:17:58.428Z,4.36
2019-03-25T19:20:29.135Z,4.42
2019-03-25T19:22:59.226Z,4.49
2019-03-25T19:25:31.082Z,4.58
2019-03-25T19:27:59.598Z,4.66
2019-03-25T19:30:28.348Z,4.74
2019-03-25T19:32:59.991Z,4.79
2019-03-25T19:35:30.121Z,4.85
2019-03-25T19:37:58.428Z,4.89
2019-03-25T19:40:26.939Z,4.91
2019-03-25T19:42:55.107Z,4.92
2019-03-25T19:45:23.615Z,4.93
2019-03-25T19:47:51.812Z,4.94
2019-03-25T19:50:20.639Z,4.95
2019-03-25T19:52:48.877Z,4.98
2019-03-25T19:55:17.172Z,5.01
2019-03-25T19:57:45.482Z,5.07
2019-03-25T20:00:13.912Z,5.13
2019-03-25T20:02:42.385Z,5.18
2019-03-25T20:05:10.735Z,5.23
2019-03-25T20:07:39.204Z,5.26
2019-03-25T20:10:10.636Z,5.28
2019-03-25T20:12:38.881Z,5.30
2019-03-25T20:15:08.205Z,5.30
2019-03-25T20:17:36.487Z,5.26
2019-03-25T20:20:06.089Z,5.16
2019-03-25T20:22:34.327Z,5.12
2019-03-25T20:25:02.629Z,5.07
2019-03-25T20:27:31.098Z,5.01
2019-03-25T20:29:59.555Z,4.94
2019-03-25T20:32:31.939Z,4.88
2019-03-25T20:34:58.195Z,4.84
2019-03-25T20:37:26.675Z,4.82
2019-03-25T20:39:55.157Z,4.78
2019-03-25T20:42:23.371Z,4.76
2019-03-25T20:44:51.630Z,4.72
2019-03-25T20:47:19.942Z,4.74
2019-03-25T20:49:48.207Z,4.56
2019-03-25T20:52:16.794Z,4.68
2019-03-25T20:54:45.277Z,4.63
2019-03-25T20:57:13.524Z,4.64
2019-03-25T20:59:42.065Z,4.62
2019-03-25T21:02:10.542Z,4.59
2019-03-25T21:04:38.815Z,4.62
2019-03-25T21:07:07.443Z,4.57
2019-03-25T21:09:35.793Z,4.54
2019-03-25T21:12:04.053Z,4.54
2019-03-25T21:14:32.291Z,4.55
2019-03-25T21:17:00.499Z,4.47
2019-03-25T21:19:28.991Z,4.47
2019-03-25T21:21:57.233Z,4.56
2019-03-25T21:24:25.500Z,4.58
2019-03-25T21:26:53.739Z,4.60
2019-03-25T21:29:22.081Z,4.63
2019-03-25T21:31:50.500Z,4.67
2019-03-25T21:34:18.717Z,4.74
2019-03-25T21:36:47.257Z,4.81
2019-03-25T21:39:15.417Z,4.88
2019-03-25T21:41:43.675Z,4.94
2019-03-25T21:44:11.979Z,5.02
2019-03-25T21:46:40.449Z,5.07
2019-03-25T21:49:08.796Z,5.13
2019-03-25T21:51:37.099Z,5.17
2019-03-25T21:54:05.491Z,5.21
2019-03-25T21:56:34.073Z,5.26
2019-03-25T21:59:02.283Z,5.30
2019-03-25T22:01:30.604Z,5.33
2019-03-25T22:03:58.860Z,5.34
2019-03-25T22:06:27.088Z,5.34
2019-03-25T22:08:55.576Z,5.35
2019-03-25T22:11:23.806Z,5.57
2019-03-25T22:13:52.103Z,5.44
2019-03-25T22:16:20.343Z,5.43
2019-03-25T22:18:48.648Z,5.44
2019-03-25T22:21:17.102Z,5.42
2019-03-25T22:23:45.589Z,5.45
2019-03-25T22:26:14.046Z,5.46
2019-03-25T22:28:42.507Z,5.47
2019-03-25T22:31:10.737Z,5.46
2019-03-25T22:33:38.975Z,5.49
2019-03-25T22:36:07.204Z,5.50
2019-03-25T22:38:35.461Z,5.50
2019-03-25T22:41:03.766Z,5.53
2019-03-25T22:43:32.003Z,5.52
2019-03-25T22:46:00.232Z,5.54
2019-03-25T22:48:28.695Z,5.54
2019-03-25T22:50:56.924Z,5.57
2019-03-25T22:53:25.163Z,5.57
2019-03-25T22:55:53.392Z,5.57
2019-03-25T22:58:21.628Z,5.56
2019-03-25T23:00:50.083Z,5.57
2019-03-25T23:03:18.334Z,5.54
2019-03-25T23:05:46.853Z,5.56
2019-03-25T23:08:15.337Z,5.58
2019-03-25T23:10:43.791Z,5.56
2019-03-25T23:13:12.255Z,5.51
2019-03-25T23:15:40.484Z,5.50
2019-03-25T23:18:08.719Z,5.48
2019-03-25T23:20:36.951Z,5.45
2019-03-25T23:23:05.195Z,5.44
2019-03-25T23:25:33.425Z,5.42
2019-03-25T23:28:01.667Z,5.38
2019-03-25T23:30:30.122Z,5.30
2019-03-25T23:32:58.370Z,5.25
2019-03-25T23:35:26.600Z,5.21
2019-03-25T23:37:55.066Z,5.19
2019-03-25T23:40:23.296Z,5.16
2019-03-25T23:42:51.784Z,5.13
2019-03-25T23:45:20.242Z,5.12
2019-03-25T23:47:48.477Z,5.12
2019-03-25T23:50:16.984Z,5.12
2019-03-25T23:52:45.197Z,5.12
2019-03-25T23:55:13.430Z,5.15
2019-03-25T23:57:45.472Z,5.17
